Terminal Aerodrome Forecast
Issued by NWS

Home | Current Version | Previous Version | Text Only | Print | Product List | Glossary On
Versions: 1 2 3 4 5 6 7 8 9 10 11 12 13 14 15
000
FTUS46 KOTX 222329
TAFSFF
TAF
KSFF 222329Z 2300/2324 VRB04KT P6SM FEW060 SCT250
     FM231600 20004KT P6SM SCT250
     FM232200 22012G17KT P6SM BKN250=

USA.gov is the U.S. government's official web portal to all federal, state and local government web resources and services.